Time;durP1;ratioP1;P1;durP2;ratioP2;P2;SDS_P1;SDS_P2;PMS_P1;PMS_P2;Temp;Humidity;BMP_temperature;BMP_pressure;BME280_temperature;BME280_humidity;BME280_pressure;Samples;Min_cycle;Max_cycle;Signal;HPM_P1;HPM_P2
2023/04/13 00:01:07;;;;;;;0.80;0.60;;;6.40;99.90;;;-144.05;60.76;56931.66;5091739;28;20024;-76
2023/04/13 00:03:35;;;;;;;1.25;0.70;;;6.40;99.90;;;-144.05;60.77;56950.78;5091907;28;20034;-76
2023/04/13 00:06:02;;;;;;;1.88;0.60;;;6.50;99.90;;;-144.05;60.74;56916.81;5091342;28;20020;-75
2023/04/13 00:08:29;;;;;;;1.92;0.93;;;6.50;99.90;;;-144.05;60.24;56950.78;5091584;28;20118;-76
2023/04/13 00:10:56;;;;;;;1.35;0.60;;;6.50;99.90;;;-144.05;60.53;56904.06;5091786;28;20039;-75
2023/04/13 00:13:23;;;;;;;2.03;0.60;;;6.50;99.90;;;-144.05;60.43;56906.19;5092174;28;20073;-76
2023/04/13 00:15:49;;;;;;;3.25;0.70;;;6.50;99.90;;;-144.05;61.09;56955.03;5092069;28;20020;-75
2023/04/13 00:18:15;;;;;;;2.78;0.82;;;6.50;99.90;;;-144.05;60.61;56921.06;5091607;28;20065;-75
2023/04/13 00:20:42;;;;;;;1.10;0.43;;;6.50;99.90;;;-144.05;60.71;56927.41;5091524;28;20034;-77
2023/04/13 00:23:08;;;;;;;1.35;0.40;;;6.60;99.90;;;-144.05;60.01;56927.41;5091509;28;20024;-76
2023/04/13 00:25:34;;;;;;;2.42;0.65;;;6.60;99.90;;;-144.05;59.46;56904.06;5073400;28;20036;-74
2023/04/13 00:28:05;;;;;;;1.70;0.63;;;6.70;99.90;;;-144.05;60.14;56921.06;5091411;28;20053;-74
2023/04/13 00:30:31;;;;;;;4.78;0.60;;;6.70;99.90;;;-144.05;60.15;56923.19;5073534;28;20028;-75
2023/04/13 00:32:57;;;;;;;2.00;0.73;;;6.70;99.90;;;-144.05;60.31;56933.78;5073284;28;20059;-75
2023/04/13 00:35:25;;;;;;;0.70;0.50;;;6.80;99.90;;;-144.05;59.23;56940.16;5073304;28;20499;-77
2023/04/13 00:37:52;;;;;;;1.00;0.60;;;6.90;99.90;;;-144.05;59.18;56942.28;5091202;28;20074;-76
2023/04/13 00:40:18;;;;;;;2.50;0.68;;;6.90;99.90;;;-144.05;59.13;56955.03;5091450;28;20034;-75
2023/04/13 00:42:47;;;;;;;3.55;0.55;;;6.90;99.90;;;-144.05;59.02;56889.19;5091615;28;20497;-74
2023/04/13 00:45:15;;;;;;;0.80;0.40;;;6.90;99.90;;;-144.05;59.33;56916.81;5091707;28;20028;-76
2023/04/13 00:47:47;;;;;;;1.42;0.55;;;7.00;99.90;;;-144.05;58.87;56933.78;5091754;28;20077;-75
2023/04/13 00:50:18;;;;;;;2.35;0.50;;;7.00;99.90;;;-144.05;58.78;56948.66;5091887;28;20032;-76
2023/04/13 00:52:46;;;;;;;3.72;0.57;;;7.10;99.90;;;-144.05;58.58;56912.56;5091334;28;20511;-76
2023/04/13 00:55:13;;;;;;;2.80;0.60;;;7.10;99.90;;;-144.05;58.58;56931.66;5091812;28;20425;-76
2023/04/13 00:57:40;;;;;;;5.70;0.50;;;7.20;99.90;;;-144.05;59.83;56921.06;5091132;28;20058;-76
2023/04/13 01:00:08;;;;;;;2.42;0.60;;;7.20;99.90;;;-144.05;60.50;56931.66;5073024;28;20032;-75
2023/04/13 01:02:40;;;;;;;1.25;0.55;;;7.30;99.90;;;-144.05;61.03;56925.28;5091218;28;20063;-75
2023/04/13 01:05:07;;;;;;;3.35;0.73;;;7.20;99.90;;;-144.05;62.04;56912.56;5091112;28;20024;-77
2023/04/13 01:07:36;;;;;;;2.22;0.77;;;7.20;99.90;;;-144.05;63.43;56938.03;5090868;28;20414;-76
2023/04/13 01:10:34;;;;;;;1.30;0.60;;;7.10;99.90;;;-144.05;64.19;56933.78;5090800;28;20081;-77
2023/04/13 01:13:51;;;;;;;3.15;0.82;;;6.90;99.90;;;-144.05;65.21;56929.53;5090908;28;20085;-76
2023/04/13 01:16:33;;;;;;;2.38;0.70;;;6.90;99.90;;;-144.05;66.16;56923.19;5092072;28;20511;-75
2023/04/13 01:19:00;;;;;;;2.35;0.50;;;6.80;99.90;;;-144.05;66.58;56897.69;5077961;28;20032;-76
2023/04/13 01:21:31;;;;;;;4.20;1.20;;;6.80;99.90;;;-144.05;65.91;56918.94;5095709;28;20059;-76
2023/04/13 01:25:16;;;;;;;3.22;0.57;;;6.70;99.90;;;-144.05;65.90;56925.28;5098291;28;20054;-75
2023/04/13 01:27:56;;;;;;;1.20;0.50;;;6.70;99.90;;;-144.05;66.45;56931.66;5095519;28;20099;-74
2023/04/13 01:30:27;;;;;;;1.70;0.80;;;6.70;99.90;;;-144.05;66.53;56929.53;5096070;28;20101;-76
2023/04/13 01:32:55;;;;;;;2.70;0.77;;;6.70;99.90;;;-144.05;66.34;56923.19;5095365;28;20051;-76
2023/04/13 01:35:24;;;;;;;1.98;0.50;;;6.70;99.90;;;-144.05;66.53;56929.53;5076659;28;20372;-76
2023/04/13 01:37:52;;;;;;;4.63;0.80;;;6.70;99.90;;;-144.05;67.31;56921.06;5094634;28;20061;-74
2023/04/13 01:40:21;;;;;;;3.85;0.65;;;6.70;99.90;;;-144.05;67.50;56918.94;5094727;28;20028;-77
2023/04/13 01:42:47;;;;;;;4.13;0.80;;;6.70;99.90;;;-144.05;67.75;56914.69;5097712;28;20024;-73
2023/04/13 01:45:46;;;;;;;1.35;0.50;;;6.70;99.90;;;-144.05;67.37;56931.66;5097211;28;20028;-74
2023/04/13 01:48:35;;;;;;;1.55;0.45;;;6.70;99.90;;;-144.05;66.93;56946.53;5069147;28;20082;-75
2023/04/13 01:51:15;;;;;;;2.60;0.60;;;6.70;99.90;;;-144.05;67.24;56925.28;5097332;28;20491;-74
2023/04/13 01:53:56;;;;;;;1.73;0.57;;;6.80;99.90;;;-144.05;67.76;56946.53;5096183;28;20028;-76
2023/04/13 01:56:22;;;;;;;1.92;0.55;;;6.70;99.90;;;-144.05;67.41;56927.41;5095772;28;20031;-73
2023/04/13 01:58:56;;;;;;;3.10;1.23;;;6.70;99.90;;;-144.05;67.26;56927.41;5096061;28;20028;-76
2023/04/13 02:01:24;;;;;;;3.88;0.60;;;6.70;99.90;;;-144.05;66.65;56957.16;5078608;28;20051;-75
2023/04/13 02:03:51;;;;;;;2.05;0.50;;;6.70;99.90;;;-144.05;66.36;56950.78;5097229;28;20027;-74
2023/04/13 02:06:17;;;;;;;3.45;0.90;;;6.80;99.90;;;-144.05;66.24;56933.78;5077655;28;20024;-75
2023/04/13 02:08:44;;;;;;;2.72;0.55;;;6.80;99.90;;;-144.05;66.46;56948.66;5095796;28;20471;-76
2023/04/13 02:11:11;;;;;;;1.73;0.50;;;6.80;99.90;;;-144.05;65.21;56940.16;5078048;28;20028;-75
2023/04/13 02:13:37;;;;;;;2.70;0.75;;;6.80;99.90;;;-144.05;65.83;56931.66;5095005;28;20052;-74
2023/04/13 02:16:08;;;;;;;1.65;0.63;;;6.90;99.90;;;-144.05;66.29;56918.94;5099028;28;20020;-74
2023/04/13 02:18:34;;;;;;;2.80;0.88;;;6.90;99.90;;;-144.05;66.34;56916.81;5095508;28;20061;-76
2023/04/13 02:21:08;;;;;;;2.42;0.70;;;6.90;99.90;;;-144.05;66.30;56906.19;5093991;28;20055;-74
2023/04/13 02:23:36;;;;;;;3.05;1.20;;;6.90;99.90;;;-144.05;67.44;56929.53;5093511;28;20099;-76
2023/04/13 02:26:03;;;;;;;3.03;0.63;;;6.90;99.90;;;-144.05;67.42;56918.94;5093502;28;20031;-75
2023/04/13 02:28:30;;;;;;;4.03;0.65;;;6.80;99.90;;;-144.05;67.42;56916.81;5092909;28;20032;-76
2023/04/13 02:30:58;;;;;;;1.52;0.45;;;6.80;99.90;;;-144.05;67.37;56938.03;5093470;28;20111;-77
2023/04/13 02:33:30;;;;;;;2.00;0.85;;;6.80;99.90;;;-144.05;68.03;56918.94;5093493;28;20464;-76
2023/04/13 02:36:01;;;;;;;3.47;0.68;;;6.70;99.90;;;-144.05;67.78;56912.56;5094203;28;20060;-76
2023/04/13 02:38:27;;;;;;;2.15;0.60;;;6.80;99.90;;;-144.05;66.89;56929.53;5094645;28;20103;-76
2023/04/13 02:41:00;;;;;;;6.45;0.88;;;6.80;99.90;;;-144.05;67.33;56925.28;5094214;28;20024;-75
2023/04/13 02:43:27;;;;;;;5.60;1.00;;;6.80;99.90;;;-144.05;66.63;56916.81;5093630;28;20028;-76
2023/04/13 02:45:55;;;;;;;1.80;0.77;;;6.90;99.90;;;-144.05;65.82;56916.81;5093202;28;20028;-76
2023/04/13 02:48:21;;;;;;;1.45;0.50;;;7.00;99.90;;;-144.05;65.09;56929.53;5093047;28;20028;-75
2023/04/13 02:50:47;;;;;;;1.20;0.40;;;7.00;99.90;;;-144.05;64.35;56938.03;5092961;28;20058;-76
2023/04/13 02:53:15;;;;;;;2.75;0.65;;;7.00;99.90;;;-144.05;64.56;56931.66;5093068;28;20495;-75
2023/04/13 02:55:42;;;;;;;3.03;0.60;;;7.10;99.90;;;-144.05;64.12;56921.06;5093073;28;20032;-75
2023/04/13 02:58:11;;;;;;;3.28;0.60;;;7.10;99.90;;;-144.05;63.77;56906.19;5092634;28;20086;-76
2023/04/13 03:00:37;;;;;;;3.60;0.65;;;7.10;99.90;;;-144.05;63.43;56935.91;5093029;28;20118;-75
2023/04/13 03:03:03;;;;;;;2.10;1.05;;;7.20;99.90;;;-144.05;63.60;56923.19;5092968;28;20024;-76
2023/04/13 03:05:32;;;;;;;2.08;0.60;;;7.20;99.90;;;-144.05;64.45;56942.28;5093004;28;20024;-76
2023/04/13 03:07:59;;;;;;;3.63;0.70;;;7.20;99.90;;;-144.05;64.55;56916.81;5092594;28;20406;-75
2023/04/13 03:10:25;;;;;;;1.52;0.60;;;7.20;99.90;;;-144.05;64.75;56933.78;5092729;28;20476;-75
2023/04/13 03:12:52;;;;;;;6.15;0.63;;;7.20;99.90;;;-144.05;64.89;56944.41;5074579;28;20035;-75
2023/04/13 03:15:18;;;;;;;2.33;0.60;;;7.10;99.90;;;-144.05;65.34;56946.53;5092740;28;20032;-75
2023/04/13 03:17:44;;;;;;;4.25;0.70;;;7.20;99.90;;;-144.05;65.40;56927.41;5092561;28;20119;-76
2023/04/13 03:20:12;;;;;;;2.20;1.27;;;7.10;99.90;;;-144.05;65.50;56897.69;5092664;28;20028;-75
2023/04/13 03:22:39;;;;;;;2.53;0.60;;;7.10;99.90;;;-144.05;65.70;56918.94;5092689;28;20103;-76
2023/04/13 03:25:07;;;;;;;2.72;0.60;;;7.10;99.90;;;-144.05;65.78;56931.66;5092763;28;20042;-76
2023/04/13 03:27:34;;;;;;;1.67;0.50;;;7.00;99.90;;;-144.05;66.56;56906.19;5092423;28;20550;-76
2023/04/13 03:30:01;;;;;;;1.95;0.40;;;7.00;99.90;;;-144.05;66.90;56933.78;5092357;28;20028;-76
2023/04/13 03:32:27;;;;;;;2.28;0.50;;;7.00;99.90;;;-144.05;66.93;56931.66;5092562;28;20071;-76
2023/04/13 03:34:54;;;;;;;7.10;0.80;;;6.90;99.90;;;-144.05;67.33;56923.19;5092723;28;20048;-76
2023/04/13 03:37:20;;;;;;;2.05;0.70;;;7.00;99.90;;;-144.05;67.89;56927.41;5092517;28;20028;-76
2023/04/13 03:39:46;;;;;;;2.10;0.50;;;6.90;99.90;;;-144.05;68.24;56933.78;5091553;28;20373;-76
2023/04/13 03:42:12;;;;;;;5.20;0.77;;;6.80;99.90;;;-144.05;68.75;56921.06;5092560;28;20031;-76
2023/04/13 03:44:38;;;;;;;1.50;0.60;;;6.80;99.90;;;-144.05;69.66;56933.78;5092362;28;20023;-76
2023/04/13 03:47:04;;;;;;;5.05;0.77;;;6.70;99.90;;;-144.05;69.75;56927.41;5092674;28;20039;-77
2023/04/13 03:49:30;;;;;;;2.30;0.80;;;6.70;99.90;;;-144.05;69.81;56938.03;5074114;28;20060;-76
2023/04/13 03:51:57;;;;;;;1.83;0.70;;;6.70;99.90;;;-144.05;70.04;56923.19;5092116;28;20105;-77
2023/04/13 03:54:24;;;;;;;6.20;0.80;;;6.70;99.90;;;-144.05;69.98;56923.19;5092419;28;20020;-76
2023/04/13 03:56:50;;;;;;;2.13;0.52;;;6.70;99.90;;;-144.05;70.59;56931.66;5092473;28;20107;-75
2023/04/13 03:59:16;;;;;;;2.30;0.70;;;6.60;99.90;;;-144.05;70.00;56904.06;5073843;28;20028;-75
2023/04/13 04:01:42;;;;;;;1.90;0.95;;;6.70;99.90;;;-144.05;70.39;56916.81;5092252;28;20039;-75
2023/04/13 04:04:08;;;;;;;3.08;1.13;;;6.70;99.90;;;-144.05;70.10;56921.06;5090993;28;20031;-75
2023/04/13 04:06:34;;;;;;;4.53;0.80;;;6.70;99.90;;;-144.05;69.90;56916.81;5092212;28;20032;-75
2023/04/13 04:09:00;;;;;;;3.25;0.70;;;6.80;99.90;;;-144.05;68.75;56933.78;5091852;28;20529;-77
2023/04/13 04:11:26;;;;;;;2.45;0.90;;;6.80;99.90;;;-144.05;68.08;56929.53;5091711;28;20036;-76
2023/04/13 04:13:53;;;;;;;4.05;0.75;;;6.90;99.90;;;-144.05;68.34;56933.78;5091741;28;20027;-75
2023/04/13 04:16:18;;;;;;;1.40;0.75;;;6.90;99.90;;;-144.05;68.24;56927.41;5091637;28;20032;-74
2023/04/13 04:18:44;;;;;;;5.57;0.75;;;6.90;99.90;;;-144.05;67.83;56914.69;5091674;28;20047;-75
2023/04/13 04:21:11;;;;;;;5.65;1.25;;;6.90;99.90;;;-144.05;67.20;56925.28;5092016;28;20060;-76
2023/04/13 04:23:38;;;;;;;2.88;0.93;;;7.00;99.90;;;-144.05;67.27;56929.53;5091629;28;20514;-75
2023/04/13 04:26:06;;;;;;;2.50;0.80;;;7.00;99.90;;;-144.05;67.43;56923.19;5091878;28;20051;-75
2023/04/13 04:28:37;;;;;;;2.72;0.75;;;7.00;99.90;;;-144.05;67.01;56925.28;5091294;28;20040;-75
2023/04/13 04:31:11;;;;;;;2.03;0.80;;;7.10;99.90;;;-144.05;66.95;56908.31;5073861;28;20399;-75
2023/04/13 04:33:39;;;;;;;2.00;0.82;;;7.10;99.90;;;-144.05;66.96;56929.53;5091747;28;20028;-74
2023/04/13 04:36:12;;;;;;;1.52;0.80;;;7.10;99.90;;;-144.05;67.11;56912.56;5091542;28;20137;-76
2023/04/13 04:38:40;;;;;;;3.97;0.80;;;7.00;99.90;;;-144.05;67.59;56918.94;5091033;28;20020;-76
2023/04/13 04:41:07;;;;;;;2.63;0.93;;;7.00;99.90;;;-144.05;67.51;56925.28;5092377;28;20031;-75
2023/04/13 04:43:34;;;;;;;3.25;0.80;;;7.00;99.90;;;-144.05;67.86;56923.19;5091391;28;20035;-76
2023/04/13 04:46:02;;;;;;;2.30;1.00;;;7.00;99.90;;;-144.05;68.16;56927.41;5091545;28;20024;-76
2023/04/13 04:48:30;;;;;;;1.65;0.70;;;7.00;99.90;;;-144.05;68.84;56933.78;5091372;28;20499;-78
2023/04/13 04:50:56;;;;;;;2.90;0.80;;;7.00;99.90;;;-144.05;69.43;56927.41;5091841;28;20028;-77
2023/04/13 04:53:23;;;;;;;1.65;0.70;;;7.00;99.90;;;-144.05;69.60;56931.66;5095493;28;20479;-77
2023/04/13 04:55:50;;;;;;;3.58;1.20;;;6.90;99.90;;;-144.05;70.23;56914.69;5095679;28;20028;-76
2023/04/13 05:00:45;;;;;;;3.30;1.10;;;6.80;99.90;;;-144.05;71.47;56923.19;5078183;28;20055;-79
2023/04/13 05:03:11;;;;;;;3.80;1.00;;;6.80;99.90;;;-144.05;71.84;56933.78;5078418;28;20020;-79
2023/04/13 05:05:37;;;;;;;5.47;1.40;;;6.80;99.90;;;-144.05;71.81;56929.53;5076993;28;20025;-78
2023/04/13 05:08:04;;;;;;;2.40;1.13;;;6.70;99.90;;;-144.05;72.11;56914.69;5076434;28;20036;-79
2023/04/13 05:10:30;;;;;;;2.22;1.10;;;6.70;99.90;;;-144.05;72.28;56910.44;5042343;28;20029;-79
2023/04/13 05:12:56;;;;;;;2.70;1.05;;;6.70;99.90;;;-144.05;72.68;56914.69;5059604;28;20080;-80
2023/04/13 05:15:22;;;;;;;2.67;1.05;;;6.60;99.90;;;-144.05;73.34;56925.28;5060067;28;20452;-79
2023/04/13 05:17:49;;;;;;;2.38;1.05;;;6.60;99.90;;;-144.05;73.23;56935.91;5059285;28;20040;-77
2023/04/13 05:20:16;;;;;;;3.35;1.10;;;6.70;99.90;;;-144.05;72.84;56931.66;5059674;28;20025;-78
2023/04/13 05:22:42;;;;;;;2.85;1.00;;;6.60;99.90;;;-144.05;73.96;56912.56;5040094;28;20025;-79
2023/04/13 05:25:10;;;;;;;4.35;1.33;;;6.60;99.90;;;-144.05;74.14;56927.41;5058008;28;20059;-77
2023/04/13 05:27:36;;;;;;;3.67;1.10;;;6.60;99.90;;;-144.05;74.20;56938.03;5057857;28;20033;-79
2023/04/13 05:30:04;;;;;;;4.07;1.23;;;6.60;99.90;;;-144.05;74.02;56921.06;5056491;28;20040;-79
2023/04/13 05:32:33;;;;;;;3.10;1.55;;;6.70;99.90;;;-144.05;74.32;56946.53;5055928;28;20029;-80
2023/04/13 05:34:59;;;;;;;5.28;1.30;;;6.70;99.90;;;-144.05;73.77;56906.19;5040897;28;20029;-80
2023/04/13 05:37:25;;;;;;;4.55;1.70;;;6.70;99.90;;;-144.05;73.85;56906.19;5058343;28;20033;-78
2023/04/13 05:39:52;;;;;;;2.50;1.23;;;6.70;99.90;;;-144.05;73.60;56923.19;5058222;28;20029;-78
2023/04/13 05:42:18;;;;;;;2.65;1.70;;;6.80;99.90;;;-144.05;73.12;56925.28;5058850;28;20394;-79
2023/04/13 05:44:44;;;;;;;4.03;1.27;;;6.80;99.90;;;-144.05;73.54;56904.06;5040927;28;20060;-78
2023/04/13 05:47:09;;;;;;;1.30;1.20;;;6.90;99.90;;;-144.05;73.09;56931.66;5058967;28;20071;-78
2023/04/13 05:49:35;;;;;;;2.63;1.40;;;7.00;99.90;;;-144.05;72.84;56910.44;5058217;28;20064;-78
2023/04/13 05:52:02;;;;;;;2.50;1.60;;;7.10;99.90;;;-144.05;72.63;56923.19;5059477;28;20104;-78
2023/04/13 05:54:28;;;;;;;1.85;1.08;;;7.20;99.90;;;-144.05;72.63;56938.03;5040569;28;20086;-78
2023/04/13 05:56:55;;;;;;;2.72;1.23;;;7.20;99.90;;;-144.05;71.79;56908.31;5057772;28;20392;-79
2023/04/13 05:59:21;;;;;;;2.22;1.13;;;7.20;99.90;;;-144.05;71.41;56931.66;5058192;28;20025;-79
2023/04/13 06:01:48;;;;;;;3.45;0.75;;;7.30;99.90;;;-144.05;70.83;56897.69;5041699;28;20029;-78
2023/04/13 06:04:15;;;;;;;1.77;0.80;;;7.50;99.90;;;-144.05;70.19;56923.19;5056874;28;20395;-76
2023/04/13 06:06:41;;;;;;;3.22;1.50;;;7.50;99.90;;;-144.05;70.87;56897.69;5057030;28;20507;-77
2023/04/13 06:09:07;;;;;;;3.33;1.13;;;7.40;99.90;;;-144.05;71.41;56927.41;5056344;28;20052;-78
2023/04/13 06:11:33;;;;;;;2.40;1.30;;;7.30;99.90;;;-144.05;70.32;56891.31;5057993;28;20025;-77
2023/04/13 06:14:01;;;;;;;1.67;1.15;;;7.50;99.90;;;-144.05;68.71;56946.53;5054558;28;20076;-77
2023/04/13 06:16:27;;;;;;;0.85;0.70;;;7.80;99.90;;;-144.05;67.96;56929.53;5057086;28;20417;-77
2023/04/13 06:18:52;;;;;;;3.45;1.60;;;7.90;99.90;;;-144.05;66.74;56897.69;5055595;28;20028;-78
2023/04/13 06:21:19;;;;;;;3.88;1.15;;;8.10;99.90;;;-144.05;67.22;56893.44;5057208;28;20036;-78
2023/04/13 06:23:45;;;;;;;1.95;0.85;;;8.20;99.90;;;-144.05;65.43;56908.31;5057983;28;20047;-77
2023/04/13 06:26:11;;;;;;;5.60;1.45;;;8.50;99.90;;;-144.05;64.48;56904.06;5057386;28;20021;-80
2023/04/13 06:28:37;;;;;;;4.53;1.55;;;8.70;99.90;;;-144.05;63.82;56906.19;5058782;28;20119;-78
2023/04/13 06:31:03;;;;;;;2.00;0.80;;;8.60;99.90;;;-144.05;64.38;56929.53;5057757;28;20032;-77
2023/04/13 06:33:30;;;;;;;2.40;0.98;;;8.60;99.90;;;-144.05;63.94;56908.31;5057096;28;20053;-76
2023/04/13 06:35:56;;;;;;;5.95;1.50;;;8.50;99.90;;;-144.05;64.91;56914.69;5057079;28;20021;-80
2023/04/13 06:38:22;;;;;;;2.40;1.10;;;8.50;99.90;;;-144.05;64.65;56921.06;5057871;28;20021;-77
2023/04/13 06:40:47;;;;;;;2.97;1.42;;;8.40;99.90;;;-144.05;64.87;56904.06;5056130;28;20075;-77
2023/04/13 06:43:13;;;;;;;3.95;1.35;;;8.40;99.90;;;-144.05;64.03;56921.06;5039281;28;20028;-77
2023/04/13 06:45:39;;;;;;;2.17;1.10;;;8.60;99.90;;;-144.05;62.75;56904.06;5058120;28;20064;-78
2023/04/13 06:48:05;;;;;;;4.30;1.60;;;8.90;99.90;;;-144.05;62.21;56893.44;5057621;28;20040;-78
2023/04/13 06:50:31;;;;;;;3.78;1.50;;;8.70;99.90;;;-144.05;62.40;56916.81;5056781;28;20036;-77
2023/04/13 06:52:57;;;;;;;3.10;1.35;;;8.70;99.90;;;-144.05;62.55;56882.81;5054586;28;20442;-75
2023/04/13 06:55:23;;;;;;;3.65;1.05;;;8.80;99.90;;;-144.05;61.94;56908.31;5055485;28;20060;-76
2023/04/13 06:57:49;;;;;;;3.42;0.90;;;8.90;99.90;;;-144.05;61.23;56889.19;5056295;28;20037;-77
2023/04/13 07:00:16;;;;;;;3.85;0.93;;;9.00;99.90;;;-144.05;61.29;56882.81;5058553;28;20033;-78
2023/04/13 07:02:42;;;;;;;3.92;1.08;;;8.90;99.90;;;-144.05;60.47;56906.19;5038167;28;20480;-77
2023/04/13 07:05:10;;;;;;;3.08;0.98;;;8.80;99.90;;;-144.05;60.58;56912.56;5055372;28;20387;-77
2023/04/13 07:07:36;;;;;;;3.08;0.93;;;8.80;99.90;;;-144.05;60.90;56904.06;5054207;28;20024;-77
2023/04/13 07:10:02;;;;;;;3.33;1.25;;;8.70;99.90;;;-144.05;59.63;56891.31;5052651;28;20029;-77
2023/04/13 07:12:28;;;;;;;2.92;0.70;;;8.70;99.90;;;-144.05;59.35;56876.44;5054933;28;20032;-77
2023/04/13 07:14:53;;;;;;;2.17;0.90;;;8.70;99.90;;;-144.05;59.37;56912.56;5052921;28;20119;-79
2023/04/13 07:17:19;;;;;;;2.90;0.65;;;8.90;99.90;;;-144.05;59.09;56901.94;5056184;28;20044;-78
2023/04/13 07:19:48;;;;;;;1.65;0.90;;;9.00;99.90;;;-144.05;58.76;56927.41;5057312;28;20488;-78
2023/04/13 07:22:15;;;;;;;5.72;1.30;;;9.30;99.90;;;-144.05;58.41;56921.06;5061252;28;20025;-78
2023/04/13 07:24:42;;;;;;;1.80;0.65;;;9.30;99.90;;;-144.05;58.06;56910.44;5061079;28;20060;-78
2023/04/13 07:27:08;;;;;;;1.95;1.10;;;9.10;99.90;;;-144.05;58.40;56887.06;5060983;28;20029;-79
2023/04/13 07:29:34;;;;;;;3.88;1.10;;;8.90;99.90;;;-144.05;57.93;56901.94;5061890;28;20029;-79
2023/04/13 07:32:03;;;;;;;2.80;0.88;;;9.20;99.90;;;-144.05;57.47;56893.44;5059131;28;20082;-77
2023/04/13 07:34:30;;;;;;;3.50;1.00;;;9.20;99.90;;;-144.05;57.18;56921.06;5058067;28;20033;-75
2023/04/13 07:36:56;;;;;;;3.20;1.30;;;9.40;99.90;;;-144.05;56.92;56906.19;5059077;28;20033;-78
2023/04/13 07:39:22;;;;;;;4.07;1.55;;;9.40;99.90;;;-144.05;56.21;56912.56;5056446;28;20103;-78
2023/04/13 07:41:48;;;;;;;5.13;2.05;;;9.60;99.90;;;-144.05;55.96;56904.06;5053975;28;20032;-78
2023/04/13 07:44:14;;;;;;;1.65;0.93;;;9.60;99.90;;;-144.05;56.06;56929.53;5054302;28;20115;-76
2023/04/13 07:46:40;;;;;;;5.00;1.33;;;9.60;99.90;;;-144.05;55.02;56891.31;5055225;28;20102;-77
2023/04/13 07:49:06;;;;;;;4.50;0.93;;;9.60;99.90;;;-144.05;55.61;56908.31;5035739;28;20025;-78
2023/04/13 07:51:33;;;;;;;1.75;0.80;;;9.70;99.90;;;-144.05;55.42;56878.56;5054398;28;20089;-77
2023/04/13 07:54:01;;;;;;;3.10;1.20;;;9.90;99.90;;;-144.05;53.38;56891.31;5053950;28;20112;-77
2023/04/13 07:56:29;;;;;;;2.78;1.25;;;10.20;99.90;;;-144.05;53.10;56891.31;5034847;28;20117;-77
2023/04/13 07:58:55;;;;;;;4.15;1.00;;;10.20;99.90;;;-144.05;53.16;56904.06;5052271;28;20475;-77
2023/04/13 08:01:21;;;;;;;4.60;1.00;;;10.20;99.90;;;-144.05;53.59;56912.56;5051340;28;20025;-78
2023/04/13 08:03:47;;;;;;;3.55;1.17;;;10.10;99.90;;;-144.05;54.49;56897.69;5054586;28;20025;-77
2023/04/13 08:06:13;;;;;;;2.40;0.90;;;9.90;99.90;;;-144.05;54.58;56897.69;5054681;28;20132;-78
2023/04/13 08:08:39;;;;;;;2.47;0.65;;;9.70;99.90;;;-144.05;55.31;56910.44;5053916;28;20052;-77
2023/04/13 08:11:07;;;;;;;2.80;1.10;;;9.40;99.90;;;-144.05;55.60;56897.69;5053268;28;20060;-75
2023/04/13 08:13:34;;;;;;;5.60;1.05;;;9.50;99.90;;;-144.05;55.74;56910.44;5052629;28;20036;-76
2023/04/13 08:16:00;;;;;;;1.67;0.95;;;9.60;99.90;;;-144.05;55.13;56908.31;5034762;28;20086;-76
2023/04/13 08:18:26;;;;;;;5.20;1.45;;;9.60;99.90;;;-144.05;54.28;56916.81;5050841;28;20041;-77
2023/04/13 08:20:53;;;;;;;3.42;1.17;;;9.70;99.90;;;-144.05;55.69;56895.56;5051749;28;20494;-77
2023/04/13 08:23:21;;;;;;;2.30;0.90;;;9.50;99.90;;;-144.05;56.30;56923.19;5052245;28;20025;-76
2023/04/13 08:25:47;;;;;;;2.47;1.15;;;9.30;99.90;;;-144.05;57.01;56916.81;5052812;28;20033;-78
2023/04/13 08:28:13;;;;;;;1.95;0.70;;;9.20;99.90;;;-144.05;57.21;56908.31;5053277;28;20056;-78
2023/04/13 08:30:40;;;;;;;4.35;0.95;;;9.10;99.90;;;-144.05;57.54;56914.69;5052882;28;20395;-77
2023/04/13 08:33:06;;;;;;;2.95;1.13;;;9.00;99.90;;;-144.05;57.93;56893.44;5053096;28;20025;-77
2023/04/13 08:35:33;;;;;;;4.00;1.42;;;9.00;99.90;;;-144.05;57.54;56914.69;5035090;28;20086;-77
2023/04/13 08:38:01;;;;;;;2.13;0.88;;;9.00;99.90;;;-144.05;57.27;56901.94;5053761;28;20449;-77
2023/04/13 08:40:28;;;;;;;3.33;0.88;;;9.00;99.90;;;-144.05;57.82;56891.31;5053581;28;20017;-77
2023/04/13 08:42:55;;;;;;;4.07;1.05;;;9.10;99.90;;;-144.05;56.82;56895.56;5054676;28;20025;-77
2023/04/13 08:45:21;;;;;;;3.65;0.98;;;9.10;99.90;;;-144.05;57.66;56906.19;5054371;28;20025;-77
2023/04/13 08:47:48;;;;;;;4.38;1.15;;;9.10;99.90;;;-144.05;57.78;56908.31;5054629;28;20431;-77
2023/04/13 08:50:15;;;;;;;6.53;0.88;;;9.10;99.90;;;-144.05;57.46;56910.44;5055871;28;20021;-77
2023/04/13 08:52:41;;;;;;;5.47;1.33;;;9.00;99.90;;;-144.05;57.02;56908.31;5055735;28;20044;-77
2023/04/13 08:55:08;;;;;;;3.95;1.10;;;9.00;99.90;;;-144.05;57.60;56918.94;5055355;28;20029;-76
2023/04/13 08:57:37;;;;;;;3.25;1.55;;;9.00;99.90;;;-144.05;58.02;56895.56;5055032;28;20040;-76
2023/04/13 09:00:12;;;;;;;4.80;1.17;;;8.90;99.90;;;-144.05;57.93;56925.28;5053540;28;20396;-77
2023/04/13 09:02:39;;;;;;;7.47;1.50;;;8.80;99.90;;;-144.05;57.24;56925.28;5055152;28;20048;-76
2023/04/13 09:05:14;;;;;;;5.43;1.40;;;8.90;99.90;;;-144.05;57.83;56899.81;5053688;28;20029;-76
2023/04/13 09:07:46;;;;;;;10.20;1.97;;;8.90;99.90;;;-144.05;58.59;56895.56;5053585;28;20082;-77
2023/04/13 09:10:15;;;;;;;5.65;1.83;;;8.90;99.90;;;-144.05;57.76;56910.44;5053471;28;20435;-76
2023/04/13 09:12:41;;;;;;;2.92;1.30;;;8.80;99.90;;;-144.05;59.44;56923.19;5052121;28;20071;-78
2023/04/13 09:15:12;;;;;;;4.72;1.55;;;8.80;99.90;;;-144.05;59.67;56921.06;5052592;28;20033;-78
2023/04/13 09:17:38;;;;;;;1.98;1.25;;;8.70;99.90;;;-144.05;58.77;56918.94;5036768;28;20208;-76
2023/04/13 09:20:30;;;;;;;4.70;1.40;;;8.70;99.90;;;-144.05;58.95;56933.78;5056733;28;20151;-77
2023/04/13 09:22:56;;;;;;;3.30;1.38;;;8.80;99.90;;;-144.05;58.87;56916.81;5054410;28;20041;-78
2023/04/13 09:25:28;;;;;;;5.07;1.50;;;8.80;99.90;;;-144.05;58.60;56940.16;5055919;28;20105;-76
2023/04/13 09:27:56;;;;;;;4.18;1.50;;;9.00;99.90;;;-144.05;58.98;56901.94;5038563;28;20033;-78
2023/04/13 09:30:26;;;;;;;5.35;1.20;;;8.90;99.90;;;-144.05;59.51;56923.19;5060779;28;20036;-77
2023/04/13 09:33:22;;;;;;;3.83;1.65;;;9.00;99.90;;;-144.05;59.05;56887.06;5055411;28;20036;-78
2023/04/13 09:35:48;;;;;;;3.40;1.20;;;9.10;99.90;;;-144.05;57.61;56901.94;5030128;28;20040;-78
2023/04/13 09:38:15;;;;;;;7.10;1.65;;;9.40;99.90;;;-144.05;56.61;56901.94;5057265;28;20491;-76
2023/04/13 09:40:48;;;;;;;3.03;1.10;;;9.60;99.90;;;-144.05;56.87;56918.94;5058376;28;20150;-76
2023/04/13 09:43:14;;;;;;;5.32;1.52;;;9.80;99.90;;;-144.05;57.80;56901.94;5041765;28;20438;-75
2023/04/13 09:45:45;;;;;;;3.58;1.30;;;9.60;99.90;;;-144.05;59.88;56929.53;5058208;28;20036;-76
2023/04/13 09:48:20;;;;;;;8.02;1.80;;;9.50;99.90;;;-144.05;61.19;56878.56;5056447;28;20369;-75
2023/04/13 09:51:04;;;;;;;4.32;2.40;;;9.50;99.90;;;-144.05;60.80;56904.06;5056511;28;20025;-76
2023/04/13 09:53:46;;;;;;;5.35;1.50;;;9.60;99.90;;;-144.05;61.50;56918.94;5058838;28;20037;-76
2023/04/13 09:56:12;;;;;;;4.85;1.92;;;9.50;99.90;;;-144.05;62.87;56870.06;5059223;28;20028;-76
2023/04/13 09:58:46;;;;;;;4.43;1.35;;;9.40;99.90;;;-144.05;63.02;56914.69;5055337;28;20495;-78
2023/04/13 10:01:16;;;;;;;5.07;1.17;;;9.20;99.90;;;-144.05;64.10;56889.19;5057605;28;20105;-77
2023/04/13 10:03:42;;;;;;;5.53;1.45;;;9.30;99.90;;;-144.05;62.25;56912.56;5054643;28;20025;-77
2023/04/13 10:06:09;;;;;;;5.03;1.50;;;9.50;99.90;;;-144.05;61.25;56891.31;5055529;28;20037;-77
2023/04/13 10:08:41;;;;;;;4.28;1.40;;;9.80;99.90;;;-144.05;60.58;56914.69;5054518;28;20021;-76
2023/04/13 10:11:14;;;;;;;2.95;1.50;;;9.90;99.90;;;-144.05;60.25;56882.81;5055715;28;20021;-78
2023/04/13 10:13:59;;;;;;;4.97;1.65;;;10.30;99.90;;;-144.05;58.72;56912.56;5056130;28;20039;-77
2023/04/13 10:17:06;;;;;;;6.63;1.80;;;10.80;99.90;;;-144.05;57.36;56887.06;5056465;28;20079;-77
2023/04/13 10:19:48;;;;;;;6.07;1.80;;;11.20;99.90;;;-144.05;55.86;56887.06;5057105;28;20033;-78
2023/04/13 10:22:16;;;;;;;8.30;1.95;;;11.50;99.90;;;-144.05;55.48;56887.06;5039137;28;20373;-78